Time;durP1;ratioP1;P1;durP2;ratioP2;P2;SDS_P1;SDS_P2;PMS_P1;PMS_P2;Temp;Humidity;BMP_temperature;BMP_pressure;BME280_temperature;BME280_humidity;BME280_pressure;Samples;Min_cycle;Max_cycle;Signal;HPM_P1;HPM_P2
2020/12/08 00:03:28;;;;;;;39.03;22.07;;;;;;;3.09;65.84;98471.44;250580;1135;115116;-74
2020/12/08 00:08:30;;;;;;;40.08;21.80;;;;;;;3.05;66.09;98468.09;251556;1135;114614;-75
2020/12/08 00:13:33;;;;;;;42.37;22.57;;;;;;;3.04;65.63;98476.05;251649;1135;114835;-76
2020/12/08 00:18:36;;;;;;;38.13;21.80;;;;;;;3.07;66.07;98466.27;251416;1135;114978;-74
2020/12/08 00:23:39;;;;;;;40.95;21.52;;;;;;;3.10;65.83;98477.58;251315;1135;116500;-74
2020/12/08 00:28:42;;;;;;;41.80;23.30;;;;;;;3.12;66.13;98473.95;251523;1134;114851;-74
2020/12/08 00:33:44;;;;;;;37.93;21.57;;;;;;;3.10;65.99;98474.95;251443;1134;114498;-76
2020/12/08 00:38:48;;;;;;;35.77;20.57;;;;;;;3.08;65.83;98473.22;251453;1134;114903;-76
2020/12/08 00:43:51;;;;;;;40.60;20.85;;;;;;;3.05;65.95;98473.34;250938;1135;115001;-76
2020/12/08 00:48:54;;;;;;;39.15;20.92;;;;;;;3.07;65.87;98474.15;251518;1135;114657;-76
2020/12/08 00:53:57;;;;;;;38.63;21.33;;;;;;;3.08;65.67;98481.11;251570;1135;114710;-74
2020/12/08 00:59:00;;;;;;;38.70;20.80;;;;;;;3.03;66.18;98498.00;251441;1134;115203;-76
2020/12/08 01:04:03;;;;;;;35.63;19.73;;;;;;;3.00;65.75;98490.23;251412;1135;114304;-76
2020/12/08 01:09:08;;;;;;;40.45;21.37;;;;;;;2.97;65.37;98493.84;251333;1135;114789;-76
2020/12/08 01:14:11;;;;;;;41.95;21.07;;;;;;;3.02;66.09;98493.64;251499;1135;115253;-74
2020/12/08 01:19:14;;;;;;;39.03;20.88;;;;;;;3.07;65.77;98495.17;251503;1135;115063;-76
2020/12/08 01:24:18;;;;;;;39.63;20.13;;;;;;;3.07;65.74;98489.92;251417;1134;114919;-74
2020/12/08 01:29:21;;;;;;;35.73;20.17;;;;;;;3.05;65.76;98480.38;251566;1134;115153;-74
2020/12/08 01:34:24;;;;;;;36.17;19.40;;;;;;;3.02;65.83;98475.24;251381;1133;114857;-75
2020/12/08 01:39:27;;;;;;;34.20;18.10;;;;;;;2.97;65.69;98482.47;251510;1135;114841;-76
2020/12/08 01:44:31;;;;;;;38.47;20.47;;;;;;;2.94;65.87;98477.34;251341;1135;114634;-75
2020/12/08 01:49:35;;;;;;;32.50;18.70;;;;;;;2.90;65.79;98479.23;251459;1134;114672;-74
2020/12/08 01:54:38;;;;;;;30.97;18.17;;;;;;;2.84;65.78;98479.47;251529;1135;114547;-74
2020/12/08 01:59:41;;;;;;;32.57;18.63;;;;;;;2.85;65.76;98483.80;251750;1134;115036;-76
2020/12/08 02:04:55;;;;;;;35.98;18.85;;;;;;;2.78;65.59;98485.81;251378;1140;114833;-75
2020/12/08 02:09:58;;;;;;;32.63;17.50;;;;;;;2.80;65.91;98484.00;251517;1137;114683;-76
2020/12/08 02:15:03;;;;;;;34.08;17.98;;;;;;;2.80;65.54;98488.40;251771;1134;115064;-75
2020/12/08 02:20:07;;;;;;;30.40;17.10;;;;;;;2.82;66.10;98478.70;251118;1135;114884;-76
2020/12/08 02:25:14;;;;;;;32.13;17.63;;;;;;;2.78;65.94;98477.08;251179;1134;115279;-75
2020/12/08 02:30:17;;;;;;;35.33;17.20;;;;;;;2.75;65.78;98483.34;251435;1135;114596;-74
2020/12/08 02:35:20;;;;;;;30.83;17.87;;;;;;;2.72;65.75;98482.61;250909;1134;114892;-75
2020/12/08 02:40:24;;;;;;;33.18;18.57;;;;;;;2.69;65.98;98482.72;251521;1135;114700;-74
2020/12/08 02:45:28;;;;;;;33.20;17.43;;;;;;;2.71;65.96;98494.86;251190;1134;114907;-74
2020/12/08 02:50:30;;;;;;;30.93;17.27;;;;;;;2.74;65.91;98501.77;251448;1134;114859;-75
2020/12/08 02:55:35;;;;;;;31.10;16.77;;;;;;;2.69;65.77;98491.45;251546;1135;115090;-75
2020/12/08 03:00:39;;;;;;;28.03;16.27;;;;;;;2.66;65.58;98488.95;251336;1134;114631;-74
2020/12/08 03:05:42;;;;;;;29.98;16.52;;;;;;;2.65;65.82;98491.61;251476;1134;115562;-75
2020/12/08 03:10:44;;;;;;;26.20;15.13;;;;;;;2.65;65.80;98496.87;251538;1134;114957;-74
2020/12/08 03:15:47;;;;;;;28.73;16.00;;;;;;;2.65;65.54;98503.00;251362;1135;114857;-75
2020/12/08 03:20:51;;;;;;;27.40;16.37;;;;;;;2.62;65.68;98504.89;251512;1134;114782;-74
2020/12/08 03:25:54;;;;;;;30.20;16.63;;;;;;;2.60;65.87;98503.16;251619;1134;114890;-74
2020/12/08 03:30:57;;;;;;;25.15;14.13;;;;;;;2.59;65.88;98500.61;251182;1135;114690;-74
2020/12/08 03:36:01;;;;;;;28.90;15.73;;;;;;;2.55;65.70;98499.87;251504;1133;114889;-75
2020/12/08 03:41:07;;;;;;;27.33;15.63;;;;;;;2.52;65.79;98512.27;251652;1137;114643;-76
2020/12/08 03:46:22;;;;;;;28.05;15.80;;;;;;;2.54;65.99;98498.13;251184;1134;114735;-76
2020/12/08 03:51:25;;;;;;;25.95;14.78;;;;;;;2.54;66.33;98498.13;251184;1133;114965;-76
2020/12/08 03:56:30;;;;;;;24.70;14.90;;;;;;;2.51;65.91;98495.62;251524;1133;114691;-75
2020/12/08 04:01:38;;;;;;;26.87;15.53;;;;;;;2.54;66.15;98500.77;251011;1135;114833;-74
2020/12/08 04:06:40;;;;;;;31.90;17.30;;;;;;;2.51;66.08;98500.88;251310;1137;114588;-75
2020/12/08 04:11:44;;;;;;;32.48;16.30;;;;;;;2.56;66.07;98495.47;251596;1136;114746;-75
2020/12/08 04:16:46;;;;;;;27.53;15.70;;;;;;;2.55;66.13;98515.63;251511;1135;114700;-74
2020/12/08 04:21:50;;;;;;;27.22;15.45;;;;;;;2.51;66.00;98510.53;251500;1137;114665;-76
2020/12/08 04:26:56;;;;;;;25.15;14.40;;;;;;;2.49;66.21;98507.97;251435;1135;114852;-74
2020/12/08 04:32:08;;;;;;;27.22;15.58;;;;;;;2.46;66.09;98509.86;251088;1135;114774;-76
2020/12/08 04:37:10;;;;;;;27.87;15.35;;;;;;;2.45;66.20;98530.02;251399;1134;115129;-75
2020/12/08 04:42:12;;;;;;;29.37;15.13;;;;;;;2.43;66.25;98529.20;251498;1134;114536;-75
2020/12/08 04:47:24;;;;;;;26.12;15.35;;;;;;;2.40;66.07;98525.84;251587;1135;114957;-75
2020/12/08 04:52:27;;;;;;;29.03;15.47;;;;;;;2.36;66.03;98523.33;251486;1134;114846;-75
2020/12/08 04:57:30;;;;;;;29.93;16.43;;;;;;;2.34;65.99;98519.03;251469;1134;114740;-75
2020/12/08 05:02:48;;;;;;;25.68;14.83;;;;;;;2.35;66.14;98512.89;251411;1135;114896;-74
2020/12/08 05:07:51;;;;;;;25.37;15.77;;;;;;;2.35;66.00;98511.12;251525;1134;114761;-74
2020/12/08 05:12:55;;;;;;;28.10;15.27;;;;;;;2.36;65.99;98525.10;251155;1134;115052;-74
2020/12/08 05:18:11;;;;;;;27.73;14.53;;;;;;;2.39;66.22;98527.61;251354;1135;114612;-74
2020/12/08 05:23:13;;;;;;;;;;;;;;;2.36;65.75;98535.60;251579;1134;115084;-75
2020/12/08 05:28:19;;;;;;;28.15;14.98;;;;;;;2.32;65.59;98526.14;251528;1134;102478;-75
2020/12/08 05:33:24;;;;;;;24.77;14.68;;;;;;;2.28;65.84;98537.67;251532;1135;114549;-75
2020/12/08 05:38:38;;;;;;;25.55;15.00;;;;;;;2.24;65.67;98528.17;251447;1134;114734;-75
2020/12/08 05:43:42;;;;;;;26.47;15.27;;;;;;;2.26;65.83;98537.70;251570;1135;114774;-75
2020/12/08 05:48:45;;;;;;;27.58;15.85;;;;;;;2.27;66.00;98543.81;251313;1137;114621;-75
2020/12/08 05:53:54;;;;;;;27.35;15.58;;;;;;;2.25;66.06;98541.25;251658;1135;114465;-75
2020/12/08 05:58:56;;;;;;;26.63;15.40;;;;;;;2.24;66.11;98554.42;251555;1134;115015;-75
2020/12/08 06:03:59;;;;;;;25.45;14.70;;;;;;;2.21;66.04;98557.16;251732;1138;115045;-76
2020/12/08 06:09:01;;;;;;;24.90;14.60;;;;;;;2.23;65.95;98571.09;251031;1135;114882;-75
2020/12/08 06:14:04;;;;;;;27.27;15.60;;;;;;;2.25;66.09;98566.66;251591;1134;115665;-75
2020/12/08 06:19:06;;;;;;;29.93;16.17;;;;;;;2.28;66.19;98566.55;251511;1134;114605;-75
2020/12/08 06:24:08;;;;;;;29.40;16.00;;;;;;;2.29;66.07;98569.10;251380;1135;114877;-77
2020/12/08 06:29:11;;;;;;;26.05;15.48;;;;;;;2.27;66.46;98575.31;251607;1134;114693;-76
2020/12/08 06:34:31;;;;;;;25.83;15.27;;;;;;;2.27;66.06;98570.06;251368;1135;114623;-75
2020/12/08 06:39:34;;;;;;;28.42;16.73;;;;;;;2.26;66.36;98576.23;251449;1135;115068;-76
2020/12/08 06:44:36;;;;;;;30.70;16.45;;;;;;;2.26;66.18;98563.11;251369;1134;114729;-75
2020/12/08 06:49:39;;;;;;;29.00;15.90;;;;;;;2.26;65.79;98563.95;251442;1134;115163;-74
2020/12/08 06:54:43;;;;;;;29.32;16.23;;;;;;;2.30;66.26;98572.58;251351;1135;114865;-77
2020/12/08 06:59:45;;;;;;;26.87;15.60;;;;;;;2.34;66.14;98584.67;251519;1141;114724;-76
2020/12/08 07:04:49;;;;;;;27.32;15.65;;;;;;;2.40;66.29;98588.86;251571;1135;115450;-75
2020/12/08 07:09:52;;;;;;;29.45;15.93;;;;;;;2.47;65.87;98606.95;251073;1133;114646;-73
2020/12/08 07:14:58;;;;;;;29.93;16.07;;;;;;;2.48;66.51;98610.44;251496;1135;114490;-77
2020/12/08 07:20:04;;;;;;;30.20;16.67;;;;;;;2.50;66.23;98604.22;251425;1134;114969;-80
2020/12/08 07:25:07;;;;;;;30.27;16.45;;;;;;;2.57;65.73;98603.08;251560;1134;114714;-78
2020/12/08 07:30:11;;;;;;;31.10;16.90;;;;;;;2.58;65.53;98602.19;246977;1134;114717;-80
2020/12/08 07:35:21;;;;;;;29.40;17.00;;;;;;;2.56;66.08;98597.90;251529;1134;115663;-78
2020/12/08 07:40:33;;;;;;;29.33;16.83;;;;;;;2.55;66.09;98604.92;251462;1134;114795;-80
2020/12/08 07:45:44;;;;;;;35.23;17.63;;;;;;;2.57;66.16;98603.08;251305;1135;114835;-80
2020/12/08 07:50:46;;;;;;;34.10;17.70;;;;;;;2.58;66.17;98606.56;251645;1135;114748;-80
2020/12/08 07:55:49;;;;;;;29.97;16.10;;;;;;;2.60;66.09;98597.72;251695;1140;114814;-81
2020/12/08 08:00:52;;;;;;;28.42;16.52;;;;;;;2.59;66.12;98603.05;251554;1135;114914;-82
2020/12/08 08:05:56;;;;;;;31.02;16.57;;;;;;;2.65;66.14;98612.45;251578;1135;114463;-82
2020/12/08 08:11:02;;;;;;;32.13;17.42;;;;;;;2.63;66.01;98615.14;251563;1135;115061;-83
2020/12/08 08:16:12;;;;;;;32.77;17.23;;;;;;;2.66;65.91;98615.03;251579;1135;114710;-82
2020/12/08 08:21:15;;;;;;;31.25;16.97;;;;;;;2.67;66.13;98613.26;251681;1135;114566;-83
2020/12/08 08:26:18;;;;;;;33.18;18.00;;;;;;;2.68;66.18;98610.56;251442;1134;114816;-82
2020/12/08 08:31:20;;;;;;;31.57;16.53;;;;;;;2.72;66.01;98612.19;251118;1138;114752;-81
2020/12/08 08:36:23;;;;;;;32.73;17.80;;;;;;;2.73;65.90;98624.40;251617;1135;114826;-83
2020/12/08 08:41:26;;;;;;;33.47;18.47;;;;;;;2.76;66.01;98623.44;251531;1135;115353;-80
2020/12/08 08:46:30;;;;;;;29.73;16.90;;;;;;;2.78;65.75;98637.36;251393;1137;114779;-79
2020/12/08 08:51:32;;;;;;;30.05;16.40;;;;;;;2.73;65.86;98634.06;251551;1138;114993;-80
2020/12/08 08:56:35;;;;;;;30.50;17.43;;;;;;;2.71;65.92;98641.12;251612;1135;114714;-83
2020/12/08 09:01:38;;;;;;;36.50;18.82;;;;;;;2.73;66.14;98636.69;251155;1134;114968;-78
2020/12/08 09:06:41;;;;;;;30.93;17.67;;;;;;;2.76;66.22;98652.34;251431;1136;114681;-84
2020/12/08 09:11:43;;;;;;;34.33;19.17;;;;;;;2.80;65.85;98644.27;251535;1142;114987;-86
2020/12/08 09:16:50;;;;;;;30.70;17.17;;;;;;;2.91;66.30;98635.13;251116;1136;115662;-82
2020/12/08 09:21:54;;;;;;;34.93;18.60;;;;;;;2.98;66.27;98637.47;251496;1134;115673;-75
2020/12/08 09:26:57;;;;;;;32.97;18.47;;;;;;;3.02;66.21;98640.84;250331;1134;114536;-82
2020/12/08 09:32:00;;;;;;;31.50;16.73;;;;;;;3.08;65.84;98636.20;251366;1138;114954;-80
2020/12/08 09:37:03;;;;;;;30.83;17.93;;;;;;;3.18;66.25;98628.82;250905;1135;114964;-82
2020/12/08 09:42:05;;;;;;;33.00;18.65;;;;;;;3.28;66.27;98638.06;251519;1135;114647;-82
2020/12/08 09:47:09;;;;;;;29.27;16.77;;;;;;;3.39;66.55;98642.05;250459;1135;114776;-80
2020/12/08 09:52:16;;;;;;;34.73;18.00;;;;;;;3.42;65.82;98639.30;251473;1134;115463;-76
2020/12/08 09:57:18;;;;;;;31.73;18.43;;;;;;;3.45;65.74;98640.03;250454;1135;114813;-78
2020/12/08 10:02:23;;;;;;;32.33;18.33;;;;;;;3.48;65.93;98649.59;248402;1134;114753;-75
2020/12/08 10:07:26;;;;;;;;;;;;;;;3.49;65.97;98649.52;251118;1135;114986;-75
2020/12/08 10:12:28;;;;;;;30.63;17.43;;;;;;;3.52;65.66;98641.50;251445;1133;102440;-75
2020/12/08 10:17:31;;;;;;;31.40;19.00;;;;;;;3.63;65.87;98634.95;251408;1134;114646;-76
2020/12/08 10:22:33;;;;;;;33.60;17.70;;;;;;;3.73;65.67;98637.14;251457;1135;114705;-76
2020/12/08 10:27:36;;;;;;;31.80;17.48;;;;;;;3.81;65.62;98634.22;251385;1135;114798;-76
2020/12/08 10:32:38;;;;;;;29.25;17.35;;;;;;;3.91;65.68;98613.64;251469;1135;114838;-76
2020/12/08 10:37:41;;;;;;;33.90;18.30;;;;;;;3.99;65.84;98628.17;251475;1135;115397;-77
2020/12/08 10:42:44;;;;;;;32.28;19.10;;;;;;;4.03;65.54;98628.91;251507;1133;114798;-77
2020/12/08 10:47:46;;;;;;;32.00;17.90;;;;;;;4.04;65.91;98622.70;251546;1136;114636;-77
2020/12/08 10:52:50;;;;;;;31.12;18.00;;;;;;;4.03;65.56;98615.73;251527;1134;115434;-75
2020/12/08 10:57:53;;;;;;;34.78;19.67;;;;;;;4.02;65.30;98629.83;251533;1135;115111;-75
2020/12/08 11:02:55;;;;;;;34.40;18.47;;;;;;;4.08;65.07;98632.22;250974;1134;114955;-76
2020/12/08 11:14:28;;;;;;;31.80;18.40;;;;;;;4.16;65.33;98626.61;245355;1135;104529;-76
2020/12/08 11:19:31;;;;;;;33.17;19.33;;;;;;;4.15;64.72;98631.03;251481;1134;115723;-75
2020/12/08 11:24:34;;;;;;;31.30;18.10;;;;;;;4.17;65.25;98641.48;251578;1134;114824;-75
2020/12/08 11:29:36;;;;;;;32.03;18.40;;;;;;;4.19;65.14;98629.12;248962;1134;115111;-79
2020/12/08 11:34:39;;;;;;;33.40;18.30;;;;;;;4.21;65.65;98643.06;251569;1135;114634;-76
2020/12/08 11:39:41;;;;;;;30.60;18.57;;;;;;;4.25;65.18;98634.13;251628;1134;114874;-76
2020/12/08 11:44:46;;;;;;;36.00;19.67;;;;;;;4.28;65.00;98623.47;251570;1134;115006;-76
2020/12/08 11:49:49;;;;;;;33.13;19.30;;;;;;;4.29;64.72;98621.69;251347;1135;114732;-79
2020/12/08 11:54:52;;;;;;;36.77;20.00;;;;;;;4.36;64.73;98631.03;251534;1134;114879;-75
2020/12/08 11:59:55;;;;;;;31.70;18.70;;;;;;;4.40;64.99;98630.81;250732;1134;114777;-83
2020/12/08 12:04:58;;;;;;;33.93;18.80;;;;;;;4.41;65.20;98629.88;250176;1135;115273;-77
2020/12/08 12:10:00;;;;;;;30.50;17.90;;;;;;;4.44;64.66;98626.27;251592;1134;114822;-78
2020/12/08 12:15:04;;;;;;;33.55;20.20;;;;;;;4.43;65.22;98622.78;250550;1134;114823;-78
2020/12/08 12:20:07;;;;;;;34.60;19.65;;;;;;;4.46;65.18;98620.02;251527;1135;114753;-78
2020/12/08 12:25:09;;;;;;;37.93;21.37;;;;;;;4.54;65.07;98611.77;250010;1135;115066;-78
2020/12/08 12:30:12;;;;;;;41.07;21.00;;;;;;;4.65;65.12;98609.53;251650;1137;114748;-78
2020/12/08 12:35:14;;;;;;;34.40;19.20;;;;;;;4.84;65.18;98601.63;251568;1134;115871;-78
2020/12/08 12:40:17;;;;;;;34.08;19.60;;;;;;;5.00;64.83;98617.61;251409;1136;114778;-78
2020/12/08 12:45:19;;;;;;;36.10;19.93;;;;;;;5.09;64.28;98621.58;251438;1135;114594;-79
2020/12/08 12:50:21;;;;;;;33.50;19.20;;;;;;;5.09;64.89;98608.39;251595;1135;115268;-78
2020/12/08 12:55:24;;;;;;;32.67;18.83;;;;;;;5.06;64.14;98612.05;251533;1134;114848;-78
2020/12/08 13:00:26;;;;;;;33.03;18.53;;;;;;;5.00;63.79;98606.20;251419;1134;114728;-78
2020/12/08 13:05:29;;;;;;;30.68;19.37;;;;;;;4.89;63.66;98606.67;251550;1134;114881;-78
2020/12/08 13:10:31;;;;;;;39.10;20.07;;;;;;;4.82;63.66;98621.06;251602;1135;114860;-78
2020/12/08 13:15:34;;;;;;;33.42;19.00;;;;;;;4.77;63.66;98621.28;251604;1134;114793;-79
2020/12/08 13:20:37;;;;;;;30.87;17.60;;;;;;;4.71;64.24;98618.92;251481;1134;114772;-78
2020/12/08 13:25:41;;;;;;;29.77;17.83;;;;;;;4.63;63.53;98605.24;251480;1134;114385;-77
2020/12/08 13:30:43;;;;;;;34.23;18.53;;;;;;;4.57;63.53;98603.73;251514;1134;114684;-77
2020/12/08 13:35:46;;;;;;;35.37;19.33;;;;;;;4.51;63.96;98618.02;250135;1135;114888;-79
2020/12/08 13:40:48;;;;;;;38.77;20.90;;;;;;;4.47;63.72;98626.14;249556;1135;115040;-77
2020/12/08 13:45:50;;;;;;;31.50;19.27;;;;;;;4.47;64.20;98634.89;251598;1137;114836;-78
2020/12/08 13:50:53;;;;;;;35.27;19.93;;;;;;;4.48;63.98;98644.53;251386;1135;114824;-77
2020/12/08 13:55:56;;;;;;;35.55;19.45;;;;;;;4.41;63.43;98650.95;251520;1135;114315;-77
2020/12/08 14:00:59;;;;;;;38.03;20.07;;;;;;;4.37;64.35;98659.08;251519;1135;115175;-77
2020/12/08 14:06:01;;;;;;;36.00;20.00;;;;;;;4.34;64.19;98654.78;251557;1135;114771;-78
2020/12/08 14:11:05;;;;;;;36.40;20.17;;;;;;;4.26;63.98;98660.39;251394;1135;114577;-77
2020/12/08 14:16:07;;;;;;;34.30;20.17;;;;;;;4.17;63.16;98663.41;251373;1134;117221;-78
2020/12/08 14:21:11;;;;;;;31.42;19.42;;;;;;;4.07;63.39;98663.86;251433;1135;116701;-78
2020/12/08 14:26:13;;;;;;;36.13;19.53;;;;;;;3.98;63.88;98673.02;251415;1135;115336;-76
2020/12/08 14:31:16;;;;;;;36.07;20.17;;;;;;;3.88;63.98;98680.42;251516;1134;114753;-77
2020/12/08 14:36:18;;;;;;;33.33;20.67;;;;;;;3.82;63.46;98680.67;249768;1134;114884;-78
2020/12/08 14:41:21;;;;;;;39.83;22.50;;;;;;;3.76;63.88;98694.06;251234;1133;114729;-75
2020/12/08 14:46:28;;;;;;;36.15;21.80;;;;;;;3.70;63.59;98683.78;251658;1135;115331;-78
2020/12/08 14:51:31;;;;;;;38.77;23.53;;;;;;;3.63;63.42;98690.20;251475;1135;115132;-78
2020/12/08 14:56:36;;;;;;;40.50;23.10;;;;;;;3.54;63.88;98694.92;251407;1135;114776;-78
2020/12/08 15:01:52;;;;;;;40.03;21.70;;;;;;;3.48;63.82;98695.16;251328;1135;114658;-76
2020/12/08 15:06:54;;;;;;;36.50;22.00;;;;;;;3.40;63.62;98693.76;250432;1134;114903;-78
2020/12/08 15:11:57;;;;;;;43.42;24.32;;;;;;;3.29;63.61;98705.55;251332;1135;114959;-76
2020/12/08 15:17:00;;;;;;;40.60;22.93;;;;;;;3.28;63.88;98721.36;251190;1135;114470;-75
2020/12/08 15:22:18;;;;;;;41.02;22.98;;;;;;;3.29;64.19;98723.06;251532;1135;114965;-74
2020/12/08 15:27:21;;;;;;;42.10;23.33;;;;;;;3.28;64.29;98724.84;251494;1136;114425;-78
2020/12/08 15:32:23;;;;;;;45.17;24.70;;;;;;;3.24;64.24;98728.51;248962;1135;115149;-77
2020/12/08 15:37:26;;;;;;;44.88;25.37;;;;;;;3.20;63.93;98742.69;251576;1135;114851;-81
2020/12/08 15:42:28;;;;;;;43.60;23.73;;;;;;;3.15;63.88;98735.87;251490;1135;114500;-80
2020/12/08 15:47:30;;;;;;;44.55;24.85;;;;;;;3.11;64.22;98734.28;251383;1135;114855;-80
2020/12/08 15:52:38;;;;;;;45.30;24.50;;;;;;;3.04;64.11;98734.50;251511;1136;114752;-81
2020/12/08 15:57:41;;;;;;;47.97;25.53;;;;;;;3.04;64.28;98742.39;251435;1134;115122;-81
2020/12/08 16:02:45;;;;;;;44.25;25.65;;;;;;;2.99;64.25;98744.34;251407;1135;115717;-77
2020/12/08 16:07:58;;;;;;;48.40;24.45;;;;;;;2.97;64.37;98750.55;250967;1135;115777;-79
2020/12/08 16:13:01;;;;;;;50.37;26.07;;;;;;;2.95;64.08;98753.22;251329;1135;114638;-84
2020/12/08 16:18:03;;;;;;;48.50;26.23;;;;;;;2.92;64.54;98762.98;251498;1135;114618;-83
2020/12/08 16:23:06;;;;;;;50.05;26.50;;;;;;;2.90;64.32;98755.17;251455;1135;114687;-83
2020/12/08 16:28:09;;;;;;;48.92;27.05;;;;;;;2.87;64.44;98746.55;251482;1135;114644;-84
2020/12/08 16:33:12;;;;;;;47.63;27.17;;;;;;;2.87;64.42;98757.91;251390;1135;114587;-82
2020/12/08 16:38:14;;;;;;;46.80;27.17;;;;;;;2.88;64.51;98758.76;251629;1134;115165;-76
2020/12/08 16:43:17;;;;;;;46.87;26.93;;;;;;;2.86;64.44;98750.95;251449;1136;115000;-76
2020/12/08 16:48:19;;;;;;;51.97;27.80;;;;;;;2.83;64.47;98753.68;251605;1134;114680;-83
2020/12/08 16:53:23;;;;;;;51.90;27.03;;;;;;;2.77;64.38;98754.73;251362;1135;114600;-76
2020/12/08 16:58:25;;;;;;;50.50;27.03;;;;;;;2.72;64.18;98759.31;250974;1135;114881;-75
2020/12/08 17:03:27;;;;;;;43.30;23.55;;;;;;;2.73;64.38;98761.02;251380;1134;114934;-78
2020/12/08 17:08:30;;;;;;;55.97;27.93;;;;;;;2.78;64.46;98760.84;251306;1134;115008;-78
2020/12/08 17:13:32;;;;;;;49.77;26.43;;;;;;;2.79;64.43;98763.44;251351;1135;114967;-76
2020/12/08 17:18:36;;;;;;;46.65;26.45;;;;;;;2.77;64.38;98752.11;251284;1134;114668;-81
2020/12/08 17:23:39;;;;;;;46.87;25.20;;;;;;;2.75;64.60;98755.70;251530;1134;114833;-77
2020/12/08 17:28:42;;;;;;;49.83;26.07;;;;;;;2.73;64.73;98757.54;251379;1135;114646;-83
2020/12/08 17:33:45;;;;;;;51.23;25.97;;;;;;;2.73;64.52;98752.28;251480;1134;114898;-76
2020/12/08 17:38:47;;;;;;;46.43;26.03;;;;;;;2.71;64.26;98747.06;251304;1135;114925;-82
2020/12/08 17:43:50;;;;;;;56.45;27.37;;;;;;;2.68;64.41;98754.20;251509;1134;114654;-74
2020/12/08 17:48:52;;;;;;;47.93;26.30;;;;;;;2.66;64.43;98771.80;251143;1135;115195;-82
2020/12/08 17:53:54;;;;;;;47.63;26.43;;;;;;;2.61;64.55;98774.56;251503;1135;114623;-81
2020/12/08 17:58:58;;;;;;;49.47;26.23;;;;;;;2.57;64.45;98772.95;249830;1134;114652;-83
2020/12/08 18:04:00;;;;;;;52.15;26.65;;;;;;;2.57;64.76;98768.56;251075;1134;114516;-85
2020/12/08 18:09:05;;;;;;;49.83;26.90;;;;;;;2.57;64.41;98773.81;249359;1135;114431;-83
2020/12/08 18:14:08;;;;;;;51.87;25.30;;;;;;;2.54;64.67;98773.91;251463;1134;115044;-83
2020/12/08 18:19:10;;;;;;;44.98;24.85;;;;;;;2.52;64.59;98767.88;251557;1135;114934;-88
2020/12/08 18:24:13;;;;;;;51.77;26.50;;;;;;;2.52;64.28;98769.65;249339;1134;115130;-81
2020/12/08 18:29:16;;;;;;;53.60;26.47;;;;;;;2.51;64.74;98758.25;248511;1135;114969;-83
2020/12/08 18:34:20;;;;;;;55.10;27.50;;;;;;;2.47;64.85;98761.91;251394;1135;114336;-81
2020/12/08 18:39:23;;;;;;;48.73;26.75;;;;;;;2.44;64.65;98767.25;251004;1134;114748;-83
2020/12/08 18:44:26;;;;;;;55.20;27.80;;;;;;;2.44;65.18;98764.63;251349;1133;114940;-83
2020/12/08 18:49:29;;;;;;;50.03;26.57;;;;;;;2.48;65.08;98762.75;246358;1134;114970;-80
2020/12/08 18:54:31;;;;;;;54.07;28.73;;;;;;;2.50;65.25;98764.42;251402;1135;115070;-80
2020/12/08 18:59:33;;;;;;;49.40;26.23;;;;;;;2.53;64.78;98763.47;250012;1134;114957;-81
2020/12/08 19:04:36;;;;;;;49.97;26.03;;;;;;;2.49;65.04;98765.34;251511;1134;115132;-85
2020/12/08 19:09:38;;;;;;;47.27;25.57;;;;;;;2.47;65.06;98768.92;251523;1142;114826;-89
2020/12/08 19:14:42;;;;;;;53.97;28.27;;;;;;;2.46;64.76;98773.33;251257;1135;115656;-81
2020/12/08 19:19:44;;;;;;;57.10;28.60;;;;;;;2.40;65.12;98757.77;251364;1134;115751;-83
2020/12/08 19:24:47;;;;;;;55.05;27.55;;;;;;;2.39;65.48;98755.20;251437;1135;116563;-80
2020/12/08 19:29:50;;;;;;;55.03;28.70;;;;;;;2.35;65.66;98749.20;251376;1135;115595;-83
2020/12/08 19:34:52;;;;;;;58.35;29.60;;;;;;;2.39;65.73;98752.58;251505;1134;114706;-85
2020/12/08 19:39:54;;;;;;;53.25;27.40;;;;;;;2.38;65.45;98756.98;251492;1135;115165;-82
2020/12/08 19:44:57;;;;;;;57.67;29.17;;;;;;;2.42;65.59;98758.59;250874;1135;114486;-88
2020/12/08 19:49:59;;;;;;;52.83;29.37;;;;;;;2.41;65.49;98756.84;251365;1134;115076;-87
2020/12/08 19:55:05;;;;;;;53.33;28.30;;;;;;;2.39;65.47;98758.69;251281;1135;114897;-83
2020/12/08 20:00:09;;;;;;;56.43;30.00;;;;;;;2.37;65.58;98749.98;251692;1135;114900;-83
2020/12/08 20:05:19;;;;;;;50.93;27.67;;;;;;;2.39;65.70;98758.69;251463;1135;115100;-82
2020/12/08 20:10:22;;;;;;;53.35;28.38;;;;;;;2.40;65.90;98749.89;251282;1134;114992;-80
2020/12/08 20:15:24;;;;;;;50.25;27.55;;;;;;;2.39;65.83;98740.30;251637;1135;114725;-82
2020/12/08 20:20:27;;;;;;;59.27;29.37;;;;;;;2.40;65.88;98738.53;251369;1134;117204;-81
2020/12/08 20:25:30;;;;;;;54.18;28.23;;;;;;;2.44;65.81;98740.99;251818;1134;114668;-81
2020/12/08 20:30:32;;;;;;;53.60;28.57;;;;;;;2.46;65.91;98744.44;251461;1134;115042;-81
2020/12/08 20:35:34;;;;;;;55.13;29.23;;;;;;;2.50;65.94;98747.81;251311;1134;115115;-81
2020/12/08 20:40:38;;;;;;;53.85;28.15;;;;;;;2.47;65.58;98746.14;251725;1135;114686;-82
2020/12/08 20:45:40;;;;;;;53.57;28.53;;;;;;;2.47;65.87;98761.05;251365;1134;114834;-79
2020/12/08 20:50:43;;;;;;;53.70;28.35;;;;;;;2.46;65.62;98767.22;251353;1135;114852;-81
2020/12/08 20:55:45;;;;;;;53.13;27.53;;;;;;;2.43;65.76;98764.69;251289;1134;114651;-82
2020/12/08 21:00:48;;;;;;;52.10;28.15;;;;;;;2.44;65.93;98769.88;251268;1135;114716;-79
2020/12/08 21:05:51;;;;;;;50.92;26.07;;;;;;;2.43;65.93;98768.17;251482;1134;115436;-81
2020/12/08 21:10:53;;;;;;;53.33;27.60;;;;;;;2.43;65.85;98772.57;251384;1134;114745;-80
2020/12/08 21:15:56;;;;;;;53.70;28.83;;;;;;;2.43;65.92;98776.05;251311;1135;114948;-79
2020/12/08 21:21:03;;;;;;;53.47;28.77;;;;;;;2.43;66.01;98775.20;251089;1134;114830;-80
2020/12/08 21:26:06;;;;;;;55.25;27.40;;;;;;;2.45;65.97;98769.00;251419;1135;115039;-78
2020/12/08 21:31:08;;;;;;;62.25;29.65;;;;;;;2.48;66.00;98773.27;251542;1134;115215;-80
2020/12/08 21:36:10;;;;;;;55.65;28.60;;;;;;;2.49;66.33;98775.85;251408;1135;114631;-81
2020/12/08 21:41:13;;;;;;;55.55;28.85;;;;;;;2.47;66.45;98764.53;251304;1135;114779;-78
2020/12/08 21:46:16;;;;;;;56.50;28.30;;;;;;;2.43;66.24;98765.55;251338;1135;114964;-79
2020/12/08 21:51:36;;;;;;;55.85;28.75;;;;;;;2.40;65.89;98770.05;251202;1135;115075;-83
2020/12/08 21:56:41;;;;;;;56.10;29.27;;;;;;;2.38;66.08;98770.11;251474;1135;114435;-80
2020/12/08 22:01:43;;;;;;;58.58;28.83;;;;;;;2.32;66.11;98768.53;251300;1134;115061;-80
2020/12/08 22:06:46;;;;;;;55.88;28.25;;;;;;;2.29;66.04;98762.53;251428;1134;114666;-80
2020/12/08 22:11:49;;;;;;;57.37;29.37;;;;;;;2.26;66.20;98766.11;251317;1135;115191;-81
2020/12/08 22:16:53;;;;;;;53.33;28.97;;;;;;;2.28;65.82;98771.33;251530;1135;114329;-79
2020/12/08 22:21:56;;;;;;;56.13;30.00;;;;;;;2.27;66.24;98769.58;250943;1135;114816;-79
2020/12/08 22:26:58;;;;;;;55.73;28.40;;;;;;;2.28;66.19;98766.07;251285;1135;114346;-81
2020/12/08 22:32:01;;;;;;;57.27;27.90;;;;;;;2.27;66.30;98759.94;251344;1134;117513;-81
2020/12/08 22:37:04;;;;;;;54.63;28.10;;;;;;;2.26;66.36;98765.25;251341;1135;114763;-82
2020/12/08 22:42:10;;;;;;;48.33;25.72;;;;;;;2.24;66.30;98760.06;251379;1135;114913;-80
2020/12/08 22:47:12;;;;;;;52.93;28.35;;;;;;;2.23;66.65;98767.98;251533;1134;114764;-79
2020/12/08 22:52:15;;;;;;;49.90;26.07;;;;;;;2.20;66.35;98757.57;251455;1135;114822;-82
2020/12/08 22:57:17;;;;;;;53.10;26.52;;;;;;;2.18;66.31;98751.53;251361;1134;115100;-82
2020/12/08 23:02:20;;;;;;;46.33;25.30;;;;;;;2.19;66.50;98751.47;251496;1134;115253;-82
2020/12/08 23:07:24;;;;;;;50.15;26.65;;;;;;;2.19;66.46;98747.98;251565;1134;114947;-80